sensor_id;sensor_type;location;lat;lon;timestamp;pressure;altitude;pressure_sealevel;temperature;humidity
64876;BME280;51369;49.862;9.908;2023-03-18T00:01:45;97821.56;;;8.99;72.82
64876;BME280;51369;49.862;9.908;2023-03-18T00:04:11;97828.03;;;8.95;72.34
64876;BME280;51369;49.862;9.908;2023-03-18T00:06:37;97836.16;;;8.94;72.09
64876;BME280;51369;49.862;9.908;2023-03-18T00:09:03;97836.22;;;8.92;72.13
64876;BME280;51369;49.862;9.908;2023-03-18T00:11:29;97834.63;;;8.88;71.46
64876;BME280;51369;49.862;9.908;2023-03-18T00:13:55;97831.13;;;8.86;71.84
64876;BME280;51369;49.862;9.908;2023-03-18T00:16:20;97828.56;;;8.83;72.30
64876;BME280;51369;49.862;9.908;2023-03-18T00:18:46;97842.16;;;8.80;72.26
64876;BME280;51369;49.862;9.908;2023-03-18T00:21:11;97840.47;;;8.77;72.66
64876;BME280;51369;49.862;9.908;2023-03-18T00:23:37;97841.56;;;8.73;72.20
64876;BME280;51369;49.862;9.908;2023-03-18T00:26:03;97841.69;;;8.70;72.39
64876;BME280;51369;49.862;9.908;2023-03-18T00:28:29;97852.69;;;8.66;72.62
64876;BME280;51369;49.862;9.908;2023-03-18T00:31:02;97850.19;;;8.61;72.74
64876;BME280;51369;49.862;9.908;2023-03-18T00:33:28;97852.16;;;8.58;72.99
64876;BME280;51369;49.862;9.908;2023-03-18T00:35:54;97849.59;;;8.55;73.07
64876;BME280;51369;49.862;9.908;2023-03-18T00:38:19;97856.91;;;8.51;72.86
64876;BME280;51369;49.862;9.908;2023-03-18T00:40:47;97860.69;;;8.47;72.85
64876;BME280;51369;49.862;9.908;2023-03-18T00:43:28;97865.31;;;8.43;73.26
64876;BME280;51369;49.862;9.908;2023-03-18T00:45:58;97863.56;;;8.42;73.91
64876;BME280;51369;49.862;9.908;2023-03-18T00:48:25;97876.13;;;8.42;74.16
64876;BME280;51369;49.862;9.908;2023-03-18T00:50:51;97869.94;;;8.40;73.70
64876;BME280;51369;49.862;9.908;2023-03-18T00:53:17;97862.75;;;8.40;74.64
64876;BME280;51369;49.862;9.908;2023-03-18T00:55:43;97865.31;;;8.43;74.86
64876;BME280;51369;49.862;9.908;2023-03-18T00:58:11;97877.63;;;8.49;74.73
64876;BME280;51369;49.862;9.908;2023-03-18T01:00:39;97873.00;;;8.53;74.80
64876;BME280;51369;49.862;9.908;2023-03-18T01:03:06;97874.69;;;8.55;74.51
64876;BME280;51369;49.862;9.908;2023-03-18T01:05:33;97879.94;;;8.58;74.43
64876;BME280;51369;49.862;9.908;2023-03-18T01:07:59;97879.72;;;8.63;74.72
64876;BME280;51369;49.862;9.908;2023-03-18T01:10:24;97874.06;;;8.69;74.29
64876;BME280;51369;49.862;9.908;2023-03-18T01:12:52;97875.47;;;8.77;74.71
64876;BME280;51369;49.862;9.908;2023-03-18T01:15:19;97867.06;;;8.85;74.05
64876;BME280;51369;49.862;9.908;2023-03-18T01:17:46;97871.31;;;8.91;74.10
64876;BME280;51369;49.862;9.908;2023-03-18T01:20:15;97870.28;;;8.93;73.94
64876;BME280;51369;49.862;9.908;2023-03-18T01:22:42;97867.59;;;8.93;73.54
64876;BME280;51369;49.862;9.908;2023-03-18T01:25:11;97865.84;;;8.92;73.99
64876;BME280;51369;49.862;9.908;2023-03-18T01:27:37;97864.84;;;8.95;73.47
64876;BME280;51369;49.862;9.908;2023-03-18T01:30:04;97855.81;;;8.96;73.57
64876;BME280;51369;49.862;9.908;2023-03-18T01:32:32;97865.66;;;8.97;73.97
64876;BME280;51369;49.862;9.908;2023-03-18T01:34:57;97871.03;;;8.97;73.24
64876;BME280;51369;49.862;9.908;2023-03-18T01:37:25;97862.94;;;8.97;73.54
64876;BME280;51369;49.862;9.908;2023-03-18T01:40:03;97864.78;;;8.96;73.71
64876;BME280;51369;49.862;9.908;2023-03-18T01:42:29;97864.69;;;8.98;72.95
64876;BME280;51369;49.862;9.908;2023-03-18T01:45:19;97872.03;;;8.94;73.50
64876;BME280;51369;49.862;9.908;2023-03-18T01:47:47;97876.56;;;8.94;73.00
64876;BME280;51369;49.862;9.908;2023-03-18T01:50:25;97869.47;;;8.91;73.56
64876;BME280;51369;49.862;9.908;2023-03-18T01:52:55;97872.19;;;8.91;73.19
64876;BME280;51369;49.862;9.908;2023-03-18T01:55:25;97865.91;;;8.91;73.37
64876;BME280;51369;49.862;9.908;2023-03-18T01:57:51;97863.22;;;8.91;74.01
64876;BME280;51369;49.862;9.908;2023-03-18T02:00:17;97870.34;;;8.92;73.36
64876;BME280;51369;49.862;9.908;2023-03-18T02:02:45;97864.97;;;8.92;73.80
64876;BME280;51369;49.862;9.908;2023-03-18T02:05:15;97866.78;;;8.91;73.40
64876;BME280;51369;49.862;9.908;2023-03-18T02:07:44;97867.66;;;8.92;73.01
64876;BME280;51369;49.862;9.908;2023-03-18T02:10:19;97873.06;;;8.92;73.68
64876;BME280;51369;49.862;9.908;2023-03-18T02:12:50;97875.69;;;8.93;73.14
64876;BME280;51369;49.862;9.908;2023-03-18T02:15:25;97872.97;;;8.93;73.75
64876;BME280;51369;49.862;9.908;2023-03-18T02:18:01;97875.69;;;8.93;73.81
64876;BME280;51369;49.862;9.908;2023-03-18T02:20:37;97869.28;;;8.96;73.41
64876;BME280;51369;49.862;9.908;2023-03-18T02:23:48;97879.03;;;8.98;73.34
64876;BME280;51369;49.862;9.908;2023-03-18T02:26:45;97876.28;;;9.00;73.22
64876;BME280;51369;49.862;9.908;2023-03-18T02:29:19;97877.03;;;9.03;73.58
64876;BME280;51369;49.862;9.908;2023-03-18T02:31:53;97884.16;;;9.04;73.32
64876;BME280;51369;49.862;9.908;2023-03-18T02:34:22;97875.94;;;9.07;73.78
64876;BME280;51369;49.862;9.908;2023-03-18T02:36:51;97881.06;;;9.13;74.14
64876;BME280;51369;49.862;9.908;2023-03-18T02:39:17;97872.69;;;9.20;73.32
64876;BME280;51369;49.862;9.908;2023-03-18T02:41:43;97876.06;;;9.25;73.82
64876;BME280;51369;49.862;9.908;2023-03-18T02:44:10;97876.78;;;9.28;72.87
64876;BME280;51369;49.862;9.908;2023-03-18T02:49:12;97885.47;;;9.35;73.35
64876;BME280;51369;49.862;9.908;2023-03-18T02:51:38;97880.97;;;9.35;73.10
64876;BME280;51369;49.862;9.908;2023-03-18T02:54:07;97886.34;;;9.35;72.62
64876;BME280;51369;49.862;9.908;2023-03-18T02:56:35;97879.22;;;9.34;72.57
64876;BME280;51369;49.862;9.908;2023-03-18T02:59:01;97878.47;;;9.31;72.95
64876;BME280;51369;49.862;9.908;2023-03-18T03:01:27;97885.81;;;9.27;72.27
64876;BME280;51369;49.862;9.908;2023-03-18T03:03:54;97890.47;;;9.24;72.88
64876;BME280;51369;49.862;9.908;2023-03-18T03:06:21;97890.59;;;9.21;72.64
64876;BME280;51369;49.862;9.908;2023-03-18T03:08:47;97890.66;;;9.19;73.09
64876;BME280;51369;49.862;9.908;2023-03-18T03:11:13;97892.50;;;9.19;73.55
64876;BME280;51369;49.862;9.908;2023-03-18T03:13:41;97899.63;;;9.20;72.91
64876;BME280;51369;49.862;9.908;2023-03-18T03:16:11;97901.38;;;9.21;72.87
64876;BME280;51369;49.862;9.908;2023-03-18T03:18:38;97896.00;;;9.21;73.43
64876;BME280;51369;49.862;9.908;2023-03-18T03:21:04;97907.63;;;9.21;73.43
64876;BME280;51369;49.862;9.908;2023-03-18T03:23:31;97905.88;;;9.20;72.96
64876;BME280;51369;49.862;9.908;2023-03-18T03:25:57;97906.91;;;9.18;73.03
64876;BME280;51369;49.862;9.908;2023-03-18T03:28:22;97906.22;;;9.12;73.07
64876;BME280;51369;49.862;9.908;2023-03-18T03:30:50;97905.50;;;9.09;73.27
64876;BME280;51369;49.862;9.908;2023-03-18T03:33:15;97901.13;;;9.06;72.67
64876;BME280;51369;49.862;9.908;2023-03-18T03:35:41;97910.28;;;9.02;73.62
64876;BME280;51369;49.862;9.908;2023-03-18T03:38:06;97910.47;;;8.98;73.02
64876;BME280;51369;49.862;9.908;2023-03-18T03:40:32;97907.97;;;8.93;73.08
64876;BME280;51369;49.862;9.908;2023-03-18T03:42:58;97909.06;;;8.89;73.81
64876;BME280;51369;49.862;9.908;2023-03-18T03:45:24;97902.88;;;8.87;73.12
64876;BME280;51369;49.862;9.908;2023-03-18T03:47:52;97915.50;;;8.85;73.32
64876;BME280;51369;49.862;9.908;2023-03-18T03:50:19;97916.53;;;8.82;73.84
64876;BME280;51369;49.862;9.908;2023-03-18T03:52:44;97924.66;;;8.81;73.60
64876;BME280;51369;49.862;9.908;2023-03-18T03:55:13;97928.28;;;8.80;73.88
64876;BME280;51369;49.862;9.908;2023-03-18T03:57:39;97922.97;;;8.78;73.44
64876;BME280;51369;49.862;9.908;2023-03-18T04:00:07;97919.47;;;8.76;73.42
64876;BME280;51369;49.862;9.908;2023-03-18T04:02:47;97923.03;;;8.77;73.32
64876;BME280;51369;49.862;9.908;2023-03-18T04:05:15;97926.69;;;8.76;73.90
64876;BME280;51369;49.862;9.908;2023-03-18T04:07:42;97927.63;;;8.75;73.32
64876;BME280;51369;49.862;9.908;2023-03-18T04:10:11;97936.69;;;8.72;73.20
64876;BME280;51369;49.862;9.908;2023-03-18T04:12:38;97937.69;;;8.70;73.82
64876;BME280;51369;49.862;9.908;2023-03-18T04:15:05;97937.00;;;8.66;73.85
64876;BME280;51369;49.862;9.908;2023-03-18T04:17:32;97937.19;;;8.62;73.53
64876;BME280;51369;49.862;9.908;2023-03-18T04:19:59;97945.38;;;8.59;73.88
64876;BME280;51369;49.862;9.908;2023-03-18T04:22:28;97950.00;;;8.55;73.68
64876;BME280;51369;49.862;9.908;2023-03-18T04:24:53;97944.69;;;8.54;74.46
64876;BME280;51369;49.862;9.908;2023-03-18T04:27:19;97943.81;;;8.53;74.01
64876;BME280;51369;49.862;9.908;2023-03-18T04:29:47;97953.63;;;8.54;73.85
64876;BME280;51369;49.862;9.908;2023-03-18T04:32:13;97950.00;;;8.55;74.58
64876;BME280;51369;49.862;9.908;2023-03-18T04:34:39;97943.63;;;8.58;74.39
64876;BME280;51369;49.862;9.908;2023-03-18T04:37:05;97948.81;;;8.62;74.36
64876;BME280;51369;49.862;9.908;2023-03-18T04:39:34;97953.97;;;8.67;74.48
64876;BME280;51369;49.862;9.908;2023-03-18T04:41:59;97953.84;;;8.70;74.50
64876;BME280;51369;49.862;9.908;2023-03-18T04:44:25;97945.72;;;8.71;74.91
64876;BME280;51369;49.862;9.908;2023-03-18T04:46:51;97949.16;;;8.75;75.05
64876;BME280;51369;49.862;9.908;2023-03-18T04:49:18;97940.00;;;8.79;75.11
64876;BME280;51369;49.862;9.908;2023-03-18T04:51:44;97941.69;;;8.81;75.44
64876;BME280;51369;49.862;9.908;2023-03-18T04:54:19;97944.19;;;8.86;75.10
64876;BME280;51369;49.862;9.908;2023-03-18T04:56:45;97957.59;;;8.88;75.17
64876;BME280;51369;49.862;9.908;2023-03-18T04:59:11;97961.97;;;8.90;75.02
64876;BME280;51369;49.862;9.908;2023-03-18T05:01:37;97957.31;;;8.94;74.85
64876;BME280;51369;49.862;9.908;2023-03-18T05:04:02;97948.31;;;8.95;74.49
64876;BME280;51369;49.862;9.908;2023-03-18T05:06:36;97946.41;;;8.97;75.28
64876;BME280;51369;49.862;9.908;2023-03-18T05:09:08;97948.91;;;9.01;75.23
64876;BME280;51369;49.862;9.908;2023-03-18T05:11:34;97938.00;;;9.04;74.84
64876;BME280;51369;49.862;9.908;2023-03-18T05:14:09;97930.75;;;9.06;75.05
64876;BME280;51369;49.862;9.908;2023-03-18T05:16:42;97936.00;;;9.09;74.81
64876;BME280;51369;49.862;9.908;2023-03-18T05:19:07;97935.91;;;9.11;74.50
64876;BME280;51369;49.862;9.908;2023-03-18T05:21:38;97935.91;;;9.11;73.67
64876;BME280;51369;49.862;9.908;2023-03-18T05:24:04;97927.84;;;9.11;73.81
64876;BME280;51369;49.862;9.908;2023-03-18T05:26:35;97938.69;;;9.09;73.96
64876;BME280;51369;49.862;9.908;2023-03-18T05:29:01;97943.19;;;9.09;73.47
64876;BME280;51369;49.862;9.908;2023-03-18T05:31:40;97945.00;;;9.08;73.67
64876;BME280;51369;49.862;9.908;2023-03-18T05:34:07;97942.44;;;9.05;74.36
64876;BME280;51369;49.862;9.908;2023-03-18T05:36:34;97946.16;;;9.03;74.27
64876;BME280;51369;49.862;9.908;2023-03-18T05:39:04;97951.59;;;9.01;74.88
64876;BME280;51369;49.862;9.908;2023-03-18T05:41:29;97960.69;;;8.99;74.40
64876;BME280;51369;49.862;9.908;2023-03-18T05:43:55;97956.31;;;8.96;74.23
64876;BME280;51369;49.862;9.908;2023-03-18T05:46:21;97952.75;;;8.96;74.40
64876;BME280;51369;49.862;9.908;2023-03-18T05:48:56;97956.31;;;8.96;73.82
64876;BME280;51369;49.862;9.908;2023-03-18T05:51:26;97950.94;;;8.96;74.57
64876;BME280;51369;49.862;9.908;2023-03-18T05:53:52;97956.31;;;8.96;73.77
64876;BME280;51369;49.862;9.908;2023-03-18T05:56:22;97958.06;;;8.97;73.79
64876;BME280;51369;49.862;9.908;2023-03-18T05:58:52;97959.81;;;8.98;74.01
64876;BME280;51369;49.862;9.908;2023-03-18T06:01:28;97955.25;;;9.00;73.97
64876;BME280;51369;49.862;9.908;2023-03-18T06:03:55;97957.88;;;9.02;74.40
64876;BME280;51369;49.862;9.908;2023-03-18T06:06:20;97946.16;;;9.03;73.79
64876;BME280;51369;49.862;9.908;2023-03-18T06:08:46;97946.91;;;9.06;73.91
64876;BME280;51369;49.862;9.908;2023-03-18T06:11:13;97946.75;;;9.09;74.16
64876;BME280;51369;49.862;9.908;2023-03-18T06:13:39;97948.38;;;9.13;74.84
64876;BME280;51369;49.862;9.908;2023-03-18T06:16:05;97944.69;;;9.16;74.02
64876;BME280;51369;49.862;9.908;2023-03-18T06:18:33;97949.06;;;9.19;74.66
64876;BME280;51369;49.862;9.908;2023-03-18T06:20:59;97960.63;;;9.21;74.55
64876;BME280;51369;49.862;9.908;2023-03-18T06:23:24;97958.75;;;9.23;74.33
64876;BME280;51369;49.862;9.908;2023-03-18T06:25:51;97959.63;;;9.23;73.76
64876;BME280;51369;49.862;9.908;2023-03-18T06:28:18;97963.13;;;9.25;73.97
64876;BME280;51369;49.862;9.908;2023-03-18T06:30:45;97959.50;;;9.26;73.84
64876;BME280;51369;49.862;9.908;2023-03-18T06:33:11;97970.19;;;9.28;74.22
64876;BME280;51369;49.862;9.908;2023-03-18T06:35:37;97973.75;;;9.28;74.12
64876;BME280;51369;49.862;9.908;2023-03-18T06:38:02;97972.75;;;9.31;73.87
64876;BME280;51369;49.862;9.908;2023-03-18T06:40:31;97968.19;;;9.33;73.70
64876;BME280;51369;49.862;9.908;2023-03-18T06:42:58;97977.88;;;9.37;74.27
64876;BME280;51369;49.862;9.908;2023-03-18T06:45:37;97980.22;;;9.44;74.05
64876;BME280;51369;49.862;9.908;2023-03-18T06:48:06;97974.44;;;9.54;74.28
64876;BME280;51369;49.862;9.908;2023-03-18T06:50:35;97974.88;;;9.63;74.02
64876;BME280;51369;49.862;9.908;2023-03-18T06:53:02;97963.69;;;9.72;73.49
64876;BME280;51369;49.862;9.908;2023-03-18T06:55:31;97972.91;;;9.87;73.25
64876;BME280;51369;49.862;9.908;2023-03-18T06:57:57;97974.66;;;10.07;73.09
64876;BME280;51369;49.862;9.908;2023-03-18T07:00:34;97978.19;;;10.28;73.42
64876;BME280;51369;49.862;9.908;2023-03-18T07:03:02;97982.59;;;10.48;73.11
64876;BME280;51369;49.862;9.908;2023-03-18T07:05:29;97987.91;;;10.68;72.95
64876;BME280;51369;49.862;9.908;2023-03-18T07:07:55;97984.22;;;10.88;72.28
64876;BME280;51369;49.862;9.908;2023-03-18T07:10:26;97997.75;;;11.05;71.37
64876;BME280;51369;49.862;9.908;2023-03-18T07:12:57;98000.53;;;11.21;70.56
64876;BME280;51369;49.862;9.908;2023-03-18T07:15:24;97999.13;;;11.31;70.36
64876;BME280;51369;49.862;9.908;2023-03-18T07:17:53;97997.84;;;11.38;70.07
64876;BME280;51369;49.862;9.908;2023-03-18T07:20:20;97998.47;;;11.43;70.29
64876;BME280;51369;49.862;9.908;2023-03-18T07:22:47;98000.06;;;11.47;69.54
64876;BME280;51369;49.862;9.908;2023-03-18T07:25:12;98005.47;;;11.47;69.51
64876;BME280;51369;49.862;9.908;2023-03-18T07:27:39;98005.47;;;11.47;68.92
64876;BME280;51369;49.862;9.908;2023-03-18T07:30:05;98006.28;;;11.49;69.29
64876;BME280;51369;49.862;9.908;2023-03-18T07:32:34;98007.00;;;11.53;68.86
64876;BME280;51369;49.862;9.908;2023-03-18T07:35:03;98010.56;;;11.53;68.89
64876;BME280;51369;49.862;9.908;2023-03-18T07:37:30;98003.25;;;11.55;69.02
64876;BME280;51369;49.862;9.908;2023-03-18T07:39:56;98005.25;;;11.52;68.21
64876;BME280;51369;49.862;9.908;2023-03-18T07:42:22;98010.72;;;11.50;68.28
64876;BME280;51369;49.862;9.908;2023-03-18T07:44:49;98016.84;;;11.54;68.14
64876;BME280;51369;49.862;9.908;2023-03-18T07:47:14;98012.88;;;11.61;68.54
64876;BME280;51369;49.862;9.908;2023-03-18T07:49:40;98018.03;;;11.65;69.79
64876;BME280;51369;49.862;9.908;2023-03-18T07:52:06;98025.03;;;11.69;69.57
64876;BME280;51369;49.862;9.908;2023-03-18T07:54:33;98023.91;;;11.73;69.37
64876;BME280;51369;49.862;9.908;2023-03-18T07:56:58;98011.34;;;11.72;68.71
64876;BME280;51369;49.862;9.908;2023-03-18T07:59:23;98013.09;;;11.73;68.81
64876;BME280;51369;49.862;9.908;2023-03-18T08:01:50;98012.13;;;11.74;68.16
64876;BME280;51369;49.862;9.908;2023-03-18T08:04:15;98013.75;;;11.79;68.01
64876;BME280;51369;49.862;9.908;2023-03-18T08:06:42;98020.59;;;11.86;69.33
64876;BME280;51369;49.862;9.908;2023-03-18T08:09:07;98014.84;;;11.92;69.38
64876;BME280;51369;49.862;9.908;2023-03-18T08:11:33;98015.41;;;11.98;68.70
64876;BME280;51369;49.862;9.908;2023-03-18T08:13:58;98018.66;;;12.05;68.91
64876;BME280;51369;49.862;9.908;2023-03-18T08:16:25;98023.72;;;12.11;68.87
64876;BME280;51369;49.862;9.908;2023-03-18T08:18:51;98022.41;;;12.18;68.84
64876;BME280;51369;49.862;9.908;2023-03-18T08:21:17;98028.09;;;12.29;68.81
64876;BME280;51369;49.862;9.908;2023-03-18T08:23:43;98018.50;;;12.39;68.95
64876;BME280;51369;49.862;9.908;2023-03-18T08:26:09;98017.81;;;12.52;69.10
64876;BME280;51369;49.862;9.908;2023-03-18T08:28:35;98024.13;;;12.68;68.08
64876;BME280;51369;49.862;9.908;2023-03-18T08:31:01;98018.53;;;12.87;67.25
64876;BME280;51369;49.862;9.908;2023-03-18T08:33:27;98022.53;;;13.11;66.86
64876;BME280;51369;49.862;9.908;2023-03-18T08:35:54;98020.06;;;13.38;65.29
64876;BME280;51369;49.862;9.908;2023-03-18T08:38:20;98016.84;;;13.61;64.28
64876;BME280;51369;49.862;9.908;2023-03-18T08:40:46;98011.75;;;13.85;62.74
64876;BME280;51369;49.862;9.908;2023-03-18T08:43:12;98020.38;;;14.06;62.67
64876;BME280;51369;49.862;9.908;2023-03-18T08:45:37;98025.63;;;14.23;61.23
64876;BME280;51369;49.862;9.908;2023-03-18T08:48:03;98018.63;;;14.33;60.34
64876;BME280;51369;49.862;9.908;2023-03-18T08:50:28;98019.84;;;14.44;60.30
64876;BME280;51369;49.862;9.908;2023-03-18T08:52:56;98016.63;;;14.51;59.74
64876;BME280;51369;49.862;9.908;2023-03-18T08:55:28;98015.06;;;14.61;60.29
64876;BME280;51369;49.862;9.908;2023-03-18T08:57:55;98022.63;;;14.71;59.29
64876;BME280;51369;49.862;9.908;2023-03-18T09:00:21;98014.72;;;14.80;59.42
64876;BME280;51369;49.862;9.908;2023-03-18T09:02:47;98022.38;;;14.88;59.15
64876;BME280;51369;49.862;9.908;2023-03-18T09:05:13;98025.47;;;14.96;58.72
64876;BME280;51369;49.862;9.908;2023-03-18T09:07:38;98023.31;;;15.01;57.87
64876;BME280;51369;49.862;9.908;2023-03-18T09:10:04;98022.72;;;15.10;58.11
64876;BME280;51369;49.862;9.908;2023-03-18T09:12:30;98022.00;;;15.21;57.55
64876;BME280;51369;49.862;9.908;2023-03-18T09:14:56;98023.22;;;15.29;56.35
64876;BME280;51369;49.862;9.908;2023-03-18T09:17:21;98021.63;;;15.40;56.28
64876;BME280;51369;49.862;9.908;2023-03-18T09:19:47;98018.28;;;15.49;56.15
64876;BME280;51369;49.862;9.908;2023-03-18T09:22:13;98015.16;;;15.55;56.21
64876;BME280;51369;49.862;9.908;2023-03-18T09:24:38;98018.31;;;15.61;56.79
64876;BME280;51369;49.862;9.908;2023-03-18T09:27:05;98015.06;;;15.69;56.86
64876;BME280;51369;49.862;9.908;2023-03-18T09:29:30;98012.91;;;15.74;56.65
64876;BME280;51369;49.862;9.908;2023-03-18T09:31:56;98010.84;;;15.78;55.80
64876;BME280;51369;49.862;9.908;2023-03-18T09:34:21;98016.72;;;15.84;56.14
64876;BME280;51369;49.862;9.908;2023-03-18T09:36:47;98016.31;;;15.90;55.63
64876;BME280;51369;49.862;9.908;2023-03-18T09:39:19;98019.34;;;15.99;56.77
64876;BME280;51369;49.862;9.908;2023-03-18T09:42:12;98019.91;;;16.04;55.20
64876;BME280;51369;49.862;9.908;2023-03-18T09:44:43;98016.31;;;16.16;55.10
64876;BME280;51369;49.862;9.908;2023-03-18T09:47:43;98011.41;;;16.21;54.65
64876;BME280;51369;49.862;9.908;2023-03-18T09:50:26;98008.34;;;16.38;52.94
64876;BME280;51369;49.862;9.908;2023-03-18T09:53:01;98010.72;;;16.55;53.81
64876;BME280;51369;49.862;9.908;2023-03-18T09:55:54;98007.03;;;16.69;53.44
64876;BME280;51369;49.862;9.908;2023-03-18T09:58:28;98012.34;;;16.83;54.11
64876;BME280;51369;49.862;9.908;2023-03-18T10:01:00;98016.13;;;16.94;53.31
64876;BME280;51369;49.862;9.908;2023-03-18T10:03:47;98008.47;;;16.99;52.10
64876;BME280;51369;49.862;9.908;2023-03-18T10:06:17;98004.59;;;17.14;54.32
64876;BME280;51369;49.862;9.908;2023-03-18T10:11:50;98011.41;;;17.32;52.82
64876;BME280;51369;49.862;9.908;2023-03-18T10:14:34;98002.59;;;17.40;52.84
64876;BME280;51369;49.862;9.908;2023-03-18T10:19:53;98008.81;;;17.66;53.61
64876;BME280;51369;49.862;9.908;2023-03-18T10:22:32;98004.41;;;17.76;51.75
64876;BME280;51369;49.862;9.908;2023-03-18T10:36:33;98003.28;;;18.36;50.78
64876;BME280;51369;49.862;9.908;2023-03-18T10:39:02;98007.28;;;18.54;50.28
64876;BME280;51369;49.862;9.908;2023-03-18T10:41:35;98015.13;;;18.70;48.75
64876;BME280;51369;49.862;9.908;2023-03-18T10:44:05;98011.75;;;18.89;50.73
64876;BME280;51369;49.862;9.908;2023-03-18T10:46:39;98009.50;;;19.05;50.14
64876;BME280;51369;49.862;9.908;2023-03-18T10:49:17;98013.19;;;19.15;48.72
64876;BME280;51369;49.862;9.908;2023-03-18T10:51:49;98009.28;;;19.29;48.61
64876;BME280;51369;49.862;9.908;2023-03-18T10:54:26;98009.63;;;19.46;49.27
64876;BME280;51369;49.862;9.908;2023-03-18T10:56:55;98002.88;;;19.62;48.67
64876;BME280;51369;49.862;9.908;2023-03-18T10:59:22;97988.38;;;19.71;49.23
64876;BME280;51369;49.862;9.908;2023-03-18T11:05:01;97990.69;;;20.07;48.27
64876;BME280;51369;49.862;9.908;2023-03-18T11:07:28;97991.22;;;20.22;47.79
64876;BME280;51369;49.862;9.908;2023-03-18T11:10:10;97984.72;;;20.23;46.69
64876;BME280;51369;49.862;9.908;2023-03-18T11:12:36;97978.84;;;20.28;47.36
64876;BME280;51369;49.862;9.908;2023-03-18T11:15:06;97990.00;;;20.36;47.21
64876;BME280;51369;49.862;9.908;2023-03-18T11:17:36;97982.31;;;20.51;47.86
64876;BME280;51369;49.862;9.908;2023-03-18T11:20:23;97985.38;;;20.57;47.57
64876;BME280;51369;49.862;9.908;2023-03-18T11:23:03;97991.91;;;20.66;46.31
64876;BME280;51369;49.862;9.908;2023-03-18T11:25:36;97988.94;;;20.78;46.17
64876;BME280;51369;49.862;9.908;2023-03-18T11:28:04;97978.81;;;20.89;47.36
64876;BME280;51369;49.862;9.908;2023-03-18T11:30:47;97987.22;;;20.97;46.23
64876;BME280;51369;49.862;9.908;2023-03-18T11:33:15;97978.44;;;21.03;45.86
64876;BME280;51369;49.862;9.908;2023-03-18T11:35:56;97974.94;;;20.91;45.86
64876;BME280;51369;49.862;9.908;2023-03-18T11:38:30;97978.97;;;20.87;45.62
64876;BME280;51369;49.862;9.908;2023-03-18T11:41:25;97981.56;;;20.89;46.22
64876;BME280;51369;49.862;9.908;2023-03-18T11:44:05;97966.88;;;20.99;45.85
64876;BME280;51369;49.862;9.908;2023-03-18T11:46:46;97973.56;;;21.16;46.00
64876;BME280;51369;49.862;9.908;2023-03-18T11:49:18;97970.28;;;21.32;44.61
64876;BME280;51369;49.862;9.908;2023-03-18T11:51:58;97963.50;;;21.46;44.76
64876;BME280;51369;49.862;9.908;2023-03-18T12:11:09;97937.91;;;21.93;44.25
64876;BME280;51369;49.862;9.908;2023-03-18T12:22:09;97940.63;;;22.13;44.70
64876;BME280;51369;49.862;9.908;2023-03-18T12:25:21;97948.72;;;22.24;43.28
64876;BME280;51369;49.862;9.908;2023-03-18T12:30:39;97938.66;;;22.42;44.81
64876;BME280;51369;49.862;9.908;2023-03-18T12:38:40;97936.13;;;22.58;44.87
64876;BME280;51369;49.862;9.908;2023-03-18T12:44:24;97934.94;;;22.61;44.02
64876;BME280;51369;49.862;9.908;2023-03-18T12:47:09;97928.84;;;22.67;42.92
64876;BME280;51369;49.862;9.908;2023-03-18T12:49:50;97927.50;;;22.71;42.99
64876;BME280;51369;49.862;9.908;2023-03-18T12:52:23;97930.81;;;22.74;42.50
64876;BME280;51369;49.862;9.908;2023-03-18T12:54:58;97929.66;;;22.77;42.56
64876;BME280;51369;49.862;9.908;2023-03-18T12:57:49;97927.94;;;22.76;41.96
64876;BME280;51369;49.862;9.908;2023-03-18T13:00:23;97926.47;;;22.82;42.78
64876;BME280;51369;49.862;9.908;2023-03-18T13:03:19;97923.56;;;22.83;43.31
64876;BME280;51369;49.862;9.908;2023-03-18T13:05:52;97917.34;;;22.81;43.37
64876;BME280;51369;49.862;9.908;2023-03-18T13:08:42;97922.16;;;22.79;44.14
64876;BME280;51369;49.862;9.908;2023-03-18T13:11:33;97917.06;;;22.84;43.11
64876;BME280;51369;49.862;9.908;2023-03-18T13:14:23;97915.09;;;22.94;42.93
64876;BME280;51369;49.862;9.908;2023-03-18T13:16:50;97918.03;;;23.11;44.04
64876;BME280;51369;49.862;9.908;2023-03-18T13:19:17;97915.06;;;23.22;42.46
64876;BME280;51369;49.862;9.908;2023-03-18T13:21:52;97915.00;;;23.31;42.63
64876;BME280;51369;49.862;9.908;2023-03-18T13:24:44;97905.16;;;23.47;42.83
64876;BME280;51369;49.862;9.908;2023-03-18T13:27:35;97897.56;;;23.58;43.16
64876;BME280;51369;49.862;9.908;2023-03-18T13:30:53;97893.00;;;23.67;42.99
64876;BME280;51369;49.862;9.908;2023-03-18T13:33:40;97899.13;;;23.79;42.12
64876;BME280;51369;49.862;9.908;2023-03-18T13:36:45;97897.38;;;23.78;41.42
64876;BME280;51369;49.862;9.908;2023-03-18T13:47:39;97890.72;;;22.99;41.44
64876;BME280;51369;49.862;9.908;2023-03-18T13:50:26;97882.53;;;22.90;41.75
64876;BME280;51369;49.862;9.908;2023-03-18T13:52:55;97881.91;;;22.96;42.47
64876;BME280;51369;49.862;9.908;2023-03-18T13:58:21;97882.38;;;22.91;41.95
64876;BME280;51369;49.862;9.908;2023-03-18T14:03:26;97871.09;;;22.57;43.32
64876;BME280;51369;49.862;9.908;2023-03-18T14:14:00;97871.63;;;21.96;42.86
64876;BME280;51369;49.862;9.908;2023-03-18T14:21:49;97869.78;;;22.34;43.92
64876;BME280;51369;49.862;9.908;2023-03-18T14:32:05;97878.44;;;21.92;44.03
64876;BME280;51369;49.862;9.908;2023-03-18T14:40:41;97860.28;;;21.62;44.95
64876;BME280;51369;49.862;9.908;2023-03-18T14:43:15;97860.72;;;21.58;45.22
64876;BME280;51369;49.862;9.908;2023-03-18T14:45:44;97860.00;;;21.56;45.49
64876;BME280;51369;49.862;9.908;2023-03-18T14:48:30;97857.41;;;21.54;44.69
64876;BME280;51369;49.862;9.908;2023-03-18T14:51:00;97854.78;;;21.53;44.98
64876;BME280;51369;49.862;9.908;2023-03-18T14:53:41;97849.03;;;21.46;45.52
64876;BME280;51369;49.862;9.908;2023-03-18T14:56:23;97851.63;;;21.38;45.54
64876;BME280;51369;49.862;9.908;2023-03-18T14:58:53;97855.81;;;21.32;45.60
64876;BME280;51369;49.862;9.908;2023-03-18T15:01:36;97856.94;;;21.20;45.76
64876;BME280;51369;49.862;9.908;2023-03-18T15:04:03;97860.28;;;21.14;45.79